createdAt,value
2023-01-08T00:00:32.157Z,101851.47
2023-01-08T00:05:28.849Z,101850.63
2023-01-08T00:10:28.046Z,101849.81
2023-01-08T00:15:25.324Z,101855.88
2023-01-08T00:20:21.968Z,101847.19
2023-01-08T00:25:18.917Z,101852.38
2023-01-08T00:30:15.817Z,101855.00
2023-01-08T00:35:13.066Z,101853.38
2023-01-08T00:40:12.283Z,101849.06
2023-01-08T00:45:13.639Z,101853.41
2023-01-08T00:50:10.601Z,101849.13
2023-01-08T00:55:08.295Z,101850.06
2023-01-08T01:00:06.319Z,101844.75
2023-01-08T01:05:03.950Z,101851.66
2023-01-08T01:10:00.556Z,101851.59
2023-01-08T01:14:57.815Z,101842.81
2023-01-08T01:19:55.750Z,101842.00
2023-01-08T01:24:52.378Z,101840.31
2023-01-08T01:29:48.955Z,101832.56
2023-01-08T01:34:46.231Z,101834.34
2023-01-08T01:39:43.132Z,101830.09
2023-01-08T01:44:41.083Z,101833.59
2023-01-08T01:49:38.689Z,101810.16
2023-01-08T01:54:36.357Z,101838.81
2023-01-08T01:59:33.930Z,101830.13
2023-01-08T02:04:30.584Z,101822.25
2023-01-08T02:09:33.448Z,101822.34
2023-01-08T02:14:35.263Z,101813.63
2023-01-08T02:19:38.277Z,101807.50
2023-01-08T02:24:42.988Z,101811.81
2023-01-08T02:29:40.794Z,101812.69
2023-01-08T02:34:38.803Z,101816.22
2023-01-08T02:39:45.702Z,101820.53
2023-01-08T02:44:50.164Z,101818.75
2023-01-08T02:49:47.040Z,101824.84
2023-01-08T02:54:44.498Z,101815.16
2023-01-08T02:59:43.128Z,101819.59
2023-01-08T03:04:46.766Z,101824.06
2023-01-08T03:09:43.501Z,101824.97
2023-01-08T03:14:43.789Z,101825.84
2023-01-08T03:19:42.701Z,101827.56
2023-01-08T03:24:40.881Z,101826.69
2023-01-08T03:29:39.575Z,101828.41
2023-01-08T03:34:37.891Z,101829.31
2023-01-08T03:39:38.155Z,101830.22
2023-01-08T03:44:34.745Z,101829.38
2023-01-08T03:49:31.624Z,101813.75
2023-01-08T03:54:30.836Z,101813.75
2023-01-08T03:59:28.161Z,101814.63
2023-01-08T04:04:24.738Z,101812.00
2023-01-08T04:09:21.361Z,101812.88
2023-01-08T04:14:18.322Z,101823.22
2023-01-08T04:19:15.601Z,101821.56
2023-01-08T04:24:12.854Z,101814.59
2023-01-08T04:29:09.710Z,101806.78
2023-01-08T04:34:06.404Z,101802.47
2023-01-08T04:39:03.766Z,101799.00
2023-01-08T04:44:00.314Z,101798.09
2023-01-08T04:48:56.880Z,101796.34
2023-01-08T04:53:53.337Z,101795.47
2023-01-08T04:58:51.553Z,101796.31
2023-01-08T05:03:48.454Z,101809.34
2023-01-08T05:08:45.104Z,101804.19
2023-01-08T05:13:41.694Z,101805.03
2023-01-08T05:18:39.061Z,101816.00
2023-01-08T05:23:35.693Z,101830.44
2023-01-08T05:28:32.915Z,101831.38
2023-01-08T05:33:29.399Z,101830.72
2023-01-08T05:38:26.616Z,101829.94
2023-01-08T05:43:23.074Z,101833.69
2023-01-08T05:48:19.640Z,101839.06
2023-01-08T05:53:18.214Z,101828.00
2023-01-08T05:58:18.522Z,101825.06
2023-01-08T06:03:15.039Z,101829.13
2023-01-08T06:08:11.609Z,101838.66
2023-01-08T06:13:09.145Z,101847.13
2023-01-08T06:18:06.554Z,101835.25
2023-01-08T06:23:03.105Z,101848.00
2023-01-08T06:27:59.725Z,101846.84
2023-01-08T06:32:56.366Z,101862.59
2023-01-08T06:37:54.921Z,101855.06
2023-01-08T06:42:51.474Z,101856.97
2023-01-08T06:47:48.130Z,101866.72
2023-01-08T06:52:44.736Z,101873.72
2023-01-08T06:57:42.054Z,101870.38
2023-01-08T07:02:38.930Z,101878.25
2023-01-08T07:07:35.638Z,101884.50
2023-01-08T07:12:32.253Z,101875.97
2023-01-08T07:17:31.072Z,101878.72
2023-01-08T07:22:27.616Z,101874.38
2023-01-08T07:27:24.347Z,101877.75
2023-01-08T07:32:21.149Z,101876.84
2023-01-08T07:37:18.450Z,101880.41
2023-01-08T07:42:15.155Z,101880.13
2023-01-08T07:47:11.732Z,101879.72
2023-01-08T07:52:08.366Z,101885.38
2023-01-08T07:57:05.590Z,101882.03
2023-01-08T08:02:02.422Z,101885.78
2023-01-08T08:06:59.303Z,101885.94
2023-01-08T08:11:56.065Z,101897.34
2023-01-08T08:16:53.382Z,101889.53
2023-01-08T08:21:49.876Z,101892.38
2023-01-08T08:26:46.492Z,101892.59
2023-01-08T08:31:43.268Z,101890.38
2023-01-08T08:36:40.693Z,101884.38
2023-01-08T08:41:39.298Z,101877.72
2023-01-08T08:46:35.885Z,101882.72
2023-01-08T08:51:32.569Z,101881.25
2023-01-08T08:56:29.857Z,101881.94
2023-01-08T09:01:26.556Z,101874.41
2023-01-08T09:06:24.580Z,101867.53
2023-01-08T09:11:21.339Z,101868.22
2023-01-08T09:16:18.639Z,101855.94
2023-01-08T09:21:15.619Z,101847.25
2023-01-08T09:26:12.269Z,101840.31
2023-01-08T09:31:09.245Z,101840.56
2023-01-08T09:36:11.900Z,101833.63
2023-01-08T09:41:10.177Z,101826.69
2023-01-08T09:46:08.389Z,101828.47
2023-01-08T09:51:06.866Z,101820.56
2023-01-08T09:56:10.946Z,101824.06
2023-01-08T10:01:11.313Z,101812.88
2023-01-08T10:06:09.008Z,101811.13
2023-01-08T10:11:07.033Z,101804.19
2023-01-08T10:16:08.259Z,101792.88
2023-01-08T10:21:05.047Z,101791.06
2023-01-08T10:26:02.681Z,101777.16
2023-01-08T10:31:04.121Z,101774.63
2023-01-08T10:36:02.372Z,101771.06
2023-01-08T10:40:59.920Z,101758.03
2023-01-08T10:45:58.685Z,101750.28
2023-01-08T10:51:06.858Z,101751.91
2023-01-08T10:56:07.427Z,101745.84
2023-01-08T11:01:12.080Z,101738.03
2023-01-08T11:06:13.590Z,101732.78
2023-01-08T11:11:13.738Z,101709.28
2023-01-08T11:16:10.462Z,101727.47
2023-01-08T11:21:17.944Z,101710.00
2023-01-08T11:26:19.778Z,101726.53
2023-01-08T11:31:19.348Z,101723.59
2023-01-08T11:36:20.782Z,101731.94
2023-01-08T11:41:25.911Z,101720.59
2023-01-08T11:46:29.311Z,101727.72
2023-01-08T11:51:36.307Z,101715.50
2023-01-08T11:56:41.780Z,101714.97
2023-01-08T12:01:44.976Z,101713.09
2023-01-08T12:06:44.931Z,101715.53
2023-01-08T12:11:47.243Z,101703.63
2023-01-08T12:16:52.351Z,101706.63
2023-01-08T12:21:55.854Z,101702.25
2023-01-08T12:26:58.489Z,101700.84
2023-01-08T12:32:08.980Z,101707.28
2023-01-08T12:37:08.111Z,101705.75
2023-01-08T12:42:08.568Z,101692.66
2023-01-08T12:47:07.083Z,101697.41
2023-01-08T12:52:08.699Z,101688.69
2023-01-08T12:57:11.193Z,101686.00
2023-01-08T13:02:15.126Z,101675.22
2023-01-08T13:07:16.548Z,101688.19
2023-01-08T13:12:15.186Z,101679.44
2023-01-08T13:17:17.301Z,101661.69
2023-01-08T13:22:23.118Z,101687.22
2023-01-08T13:27:27.706Z,101688.91
2023-01-08T13:32:26.175Z,101685.50
2023-01-08T13:37:27.709Z,101689.41
2023-01-08T13:42:28.009Z,101681.56
2023-01-08T13:47:27.777Z,101684.41
2023-01-08T13:52:31.883Z,101679.59
2023-01-08T13:57:34.078Z,101688.78
2023-01-08T14:02:32.128Z,101672.59
2023-01-08T14:07:30.089Z,101674.25
2023-01-08T14:12:29.161Z,101670.47
2023-01-08T14:17:29.397Z,101664.56
2023-01-08T14:22:28.794Z,101663.94
2023-01-08T14:27:29.054Z,101653.13
2023-01-08T14:32:28.969Z,101653.16
2023-01-08T14:37:25.595Z,101637.72
2023-01-08T14:42:41.961Z,101651.56
2023-01-08T14:47:42.759Z,101647.09
2023-01-08T14:52:40.363Z,101648.75
2023-01-08T14:57:37.023Z,101650.53
2023-01-08T15:02:36.215Z,101655.31
2023-01-08T15:07:33.553Z,101656.06
2023-01-08T15:12:30.929Z,101655.22
2023-01-08T15:17:28.543Z,101664.09
2023-01-08T15:22:26.852Z,101659.03
2023-01-08T15:27:24.835Z,101654.06
2023-01-08T15:32:22.683Z,101657.75
2023-01-08T15:37:19.428Z,101652.47
2023-01-08T15:42:37.222Z,101651.59
2023-01-08T15:47:34.783Z,101655.97
2023-01-08T15:52:31.570Z,101645.88
2023-01-08T15:57:29.716Z,101646.88
2023-01-08T16:02:26.406Z,101649.50
2023-01-08T16:07:25.059Z,101649.38
2023-01-08T16:12:25.101Z,101653.53
2023-01-08T16:17:21.867Z,101659.19
2023-01-08T16:27:33.452Z,101650.66
2023-01-08T16:32:31.047Z,101647.31
2023-01-08T16:37:30.340Z,101659.59
2023-01-08T16:42:26.943Z,101658.69
2023-01-08T16:47:26.270Z,101657.84
2023-01-08T16:52:23.010Z,101659.50
2023-01-08T16:57:19.770Z,101657.81
2023-01-08T17:02:16.635Z,101654.50
2023-01-08T17:07:16.355Z,101655.41
2023-01-08T17:12:21.625Z,101658.16
2023-01-08T17:17:21.141Z,101659.03
2023-01-08T17:22:25.063Z,101652.03
2023-01-08T17:27:21.616Z,101646.03
2023-01-08T17:32:18.523Z,101649.47
2023-01-08T17:37:15.121Z,101647.91
2023-01-08T17:42:25.016Z,101646.25
2023-01-08T17:47:21.870Z,101639.34
2023-01-08T17:52:18.598Z,101630.72
2023-01-08T17:57:16.395Z,101623.78
2023-01-08T18:02:15.923Z,101610.84
2023-01-08T18:07:13.031Z,101624.94
2023-01-08T18:12:09.742Z,101627.31
2023-01-08T18:17:07.306Z,101626.28
2023-01-08T18:22:04.034Z,101627.22
2023-01-08T18:27:00.639Z,101627.28
2023-01-08T18:31:57.388Z,101633.38
2023-01-08T18:36:54.910Z,101631.56
2023-01-08T18:42:10.375Z,101640.34
2023-01-08T18:47:06.983Z,101637.69
2023-01-08T18:52:04.561Z,101637.75
2023-01-08T18:57:01.196Z,101635.16
2023-01-08T19:01:57.943Z,101648.38
2023-01-08T19:06:54.728Z,101647.38
2023-01-08T19:11:51.991Z,101638.66
2023-01-08T19:16:51.018Z,101642.19
2023-01-08T19:21:47.857Z,101636.88
2023-01-08T19:26:44.504Z,101644.84
2023-01-08T19:31:41.959Z,101649.31
2023-01-08T19:36:39.106Z,101642.44
2023-01-08T19:41:54.142Z,101651.22
2023-01-08T19:46:51.376Z,101650.38
2023-01-08T19:51:47.983Z,101651.13
2023-01-08T19:56:44.649Z,101645.00
2023-01-08T20:01:42.859Z,101635.41
2023-01-08T20:06:43.475Z,101636.09
2023-01-08T20:11:40.093Z,101636.13
2023-01-08T20:16:36.780Z,101630.03
2023-01-08T20:21:33.837Z,101630.00
2023-01-08T20:26:31.482Z,101633.38
2023-01-08T20:31:30.387Z,101600.66
2023-01-08T20:36:27.790Z,101637.13
2023-01-08T20:41:25.851Z,101631.94
2023-01-08T20:46:23.528Z,101635.47
2023-01-08T20:51:20.182Z,101633.75
2023-01-08T20:56:17.139Z,101628.56
2023-01-08T21:01:15.127Z,101647.66
2023-01-08T21:06:13.429Z,101639.88
2023-01-08T21:11:10.489Z,101646.16
2023-01-08T21:16:09.027Z,101651.41
2023-01-08T21:21:06.667Z,101655.66
2023-01-08T21:26:04.987Z,101658.31
2023-01-08T21:31:03.994Z,101666.97
2023-01-08T21:36:03.048Z,101667.03
2023-01-08T21:40:59.752Z,101671.31
2023-01-08T21:45:59.896Z,101672.13
2023-01-08T21:50:56.556Z,101667.75
2023-01-08T21:55:53.165Z,101673.75
2023-01-08T22:00:49.744Z,101662.41
2023-01-08T22:05:56.748Z,101659.06
2023-01-08T22:10:53.691Z,101655.69
2023-01-08T22:16:00.022Z,101654.88
2023-01-08T22:20:59.935Z,101651.41
2023-01-08T22:25:56.872Z,101656.56
2023-01-08T22:30:53.405Z,101630.56
2023-01-08T22:35:51.262Z,101640.94
2023-01-08T22:40:48.568Z,101635.72
2023-01-08T22:45:51.176Z,101643.59
2023-01-08T22:50:47.811Z,101640.09
2023-01-08T22:55:45.681Z,101636.59
2023-01-08T23:00:43.077Z,101632.22
2023-01-08T23:05:39.961Z,101637.53
2023-01-08T23:10:36.613Z,101633.13
2023-01-08T23:15:33.264Z,101628.88
2023-01-08T23:20:33.582Z,101627.09
2023-01-08T23:25:31.863Z,101633.16
2023-01-08T23:30:30.967Z,101636.59
2023-01-08T23:35:27.742Z,101630.47
2023-01-08T23:40:25.018Z,101632.97
2023-01-08T23:45:21.619Z,101633.84
2023-01-08T23:50:18.209Z,101619.88
2023-01-08T23:55:14.890Z,101619.88
